Pontal, Brazil
Current Conditions -  °F | °C
As of 4:00 PM on Sunday 23 Nov 2014 (Local Time) from SBRP Reporting Station
Broken Clouds Broken Clouds  
Wind Chill: 84°   Ceiling: 10000
Heat Index: 86°   Visibility: 6mi
Dew Point: 66°   Wind: 7mph
Humidity: 55%   Direction: 200°SSW
Pressure: 29.88"   Gusts: NA
Location:  21.02°S, 48.04°W
Report Text: SBRP 231800Z 20006KT 150V240 9999 FEW040 FEW045TCU BKN100 29/19 Q1012
Loading
Personal Weather Stations






























Interactive Weather Map New forecast layout! Learn more

10-Day Weather Forecast

Advertisements
Track Severe Weather on mobile